Time;durP1;ratioP1;P1;durP2;ratioP2;P2;SDS_P1;SDS_P2;PMS_P1;PMS_P2;Temp;Humidity;BMP_temperature;BMP_pressure;BME280_temperature;BME280_humidity;BME280_pressure;Samples;Min_cycle;Max_cycle;Signal;HPM_P1;HPM_P2
2023/08/01 00:01:50;;;;;;;9.85;3.70;;;15.50;99.90;;;;;;4935271;28;20048;-64
2023/08/01 00:04:16;;;;;;;11.23;3.40;;;15.70;99.90;;;;;;4945892;28;20122;-65
2023/08/01 00:06:42;;;;;;;8.65;3.35;;;15.50;99.90;;;;;;4940691;28;20050;-64
2023/08/01 00:09:08;;;;;;;9.25;3.45;;;15.40;99.90;;;;;;4947783;28;20043;-64
2023/08/01 00:11:33;;;;;;;10.23;3.25;;;15.60;99.90;;;;;;4945641;28;20036;-65
2023/08/01 00:13:59;;;;;;;11.38;3.35;;;15.90;99.90;;;;;;4935465;28;20098;-63
2023/08/01 00:16:25;;;;;;;9.77;3.42;;;;;;;;;;4955374;28;20116;-65
2023/08/01 00:18:50;;;;;;;13.20;3.88;;;15.10;94.80;;;;;;4945990;28;20409;-64
2023/08/01 00:21:16;;;;;;;14.35;4.00;;;15.30;99.90;;;;;;4939037;28;20047;-63
2023/08/01 00:23:42;;;;;;;11.63;3.70;;;15.20;99.90;;;;;;4949637;28;20054;-64
2023/08/01 00:26:07;;;;;;;14.60;3.63;;;15.00;99.90;;;;;;4934539;28;20102;-64
2023/08/01 00:28:33;;;;;;;11.50;3.85;;;14.90;99.90;;;;;;4935325;28;20608;-64
2023/08/01 00:31:06;;;;;;;11.32;3.70;;;15.30;99.90;;;;;;4942909;28;20046;-65
2023/08/01 00:33:33;;;;;;;11.77;3.72;;;15.60;99.90;;;;;;4936492;28;20083;-63
2023/08/01 00:35:58;;;;;;;13.73;3.45;;;15.50;99.90;;;;;;4945582;28;20105;-64
2023/08/01 00:38:24;;;;;;;9.48;3.67;;;15.10;99.90;;;;;;4933783;28;20533;-63
2023/08/01 00:40:50;;;;;;;15.23;4.18;;;15.20;99.90;;;;;;4939742;28;20110;-65
2023/08/01 00:43:16;;;;;;;12.35;3.70;;;15.10;99.90;;;;;;4941840;28;20086;-64
2023/08/01 00:45:41;;;;;;;11.57;4.18;;;15.10;99.90;;;;;;4947318;28;20035;-63
2023/08/01 00:48:07;;;;;;;10.70;4.38;;;15.00;99.90;;;;;;4942913;28;20127;-64
2023/08/01 00:50:33;;;;;;;15.65;4.80;;;15.00;99.90;;;;;;4945223;28;20078;-64
2023/08/01 00:53:00;;;;;;;13.20;4.57;;;15.20;99.90;;;;;;4946608;28;20408;-64
2023/08/01 00:55:28;;;;;;;12.57;5.00;;;;;;;;;;4940602;28;20066;-63
2023/08/01 00:57:54;;;;;;;13.35;5.05;;;14.80;99.90;;;;;;4949288;28;20524;-64
2023/08/01 01:00:20;;;;;;;12.50;4.80;;;15.00;99.90;;;;;;4942340;28;20047;-64
2023/08/01 01:02:45;;;;;;;11.25;4.60;;;15.30;99.90;;;;;;4942623;28;20075;-64
2023/08/01 01:05:13;;;;;;;10.55;4.03;;;15.00;99.90;;;;;;4942303;28;20048;-65
2023/08/01 01:07:39;;;;;;;10.68;4.32;;;15.00;99.90;;;;;;4944247;28;20077;-64
2023/08/01 01:10:05;;;;;;;10.70;4.20;;;14.90;99.90;;;;;;4939240;28;20094;-64
2023/08/01 01:12:31;;;;;;;10.70;4.38;;;14.80;99.90;;;;;;4931946;28;20059;-64
2023/08/01 01:14:57;;;;;;;10.43;3.90;;;15.00;99.90;;;;;;4938095;28;20458;-63
2023/08/01 01:17:22;;;;;;;11.70;3.42;;;15.00;99.90;;;;;;4947922;28;20110;-63
2023/08/01 01:19:48;;;;;;;10.93;4.10;;;15.20;99.90;;;;;;4942002;28;20039;-63
2023/08/01 01:22:16;;;;;;;10.88;3.65;;;14.90;99.90;;;;;;4933837;28;20040;-63
2023/08/01 01:24:42;;;;;;;12.48;3.78;;;14.90;99.90;;;;;;4938416;28;20040;-63
2023/08/01 01:27:09;;;;;;;12.07;4.05;;;14.80;99.90;;;;;;4932807;28;20048;-63
2023/08/01 01:29:35;;;;;;;11.65;4.40;;;15.00;99.90;;;;;;4937304;28;20093;-62
2023/08/01 01:32:02;;;;;;;11.75;4.88;;;15.00;99.90;;;;;;4941406;28;20127;-63
2023/08/01 01:34:28;;;;;;;12.60;4.45;;;14.80;99.90;;;;;;4949601;28;20461;-63
2023/08/01 01:36:54;;;;;;;14.43;6.07;;;14.70;99.90;;;;;;4950987;28;20051;-62
2023/08/01 01:39:20;;;;;;;13.38;4.45;;;14.60;99.90;;;;;;4935589;28;20043;-62
2023/08/01 01:41:46;;;;;;;11.80;4.10;;;14.80;99.90;;;;;;4939192;28;20043;-62
2023/08/01 01:44:11;;;;;;;15.30;5.53;;;14.80;99.90;;;;;;4938277;28;20623;-63
2023/08/01 01:46:37;;;;;;;10.18;4.55;;;14.60;99.90;;;;;;4950028;28;20066;-63
2023/08/01 01:49:03;;;;;;;11.93;4.82;;;14.80;99.90;;;;;;4945368;28;20039;-64
2023/08/01 01:51:29;;;;;;;9.60;4.65;;;14.80;99.90;;;;;;4940935;28;20039;-63
2023/08/01 01:53:55;;;;;;;13.45;4.82;;;14.90;99.90;;;;;;4953008;28;20047;-64
2023/08/01 01:56:21;;;;;;;19.05;4.75;;;14.80;99.90;;;;;;4942083;28;20051;-62
2023/08/01 01:59:05;;;;;;;12.38;5.47;;;14.60;99.90;;;;;;4942884;28;20043;-63
2023/08/01 02:01:31;;;;;;;13.70;5.32;;;14.60;99.90;;;;;;4949205;28;20054;-62
2023/08/01 02:03:56;;;;;;;12.95;5.40;;;14.60;99.90;;;;;;4949421;28;20138;-63
2023/08/01 02:06:22;;;;;;;11.68;4.47;;;14.80;99.90;;;;;;4945223;28;20047;-63
2023/08/01 02:08:47;;;;;;;12.43;5.35;;;15.10;99.90;;;;;;4948067;28;20127;-63
2023/08/01 02:11:13;;;;;;;12.52;5.18;;;14.80;99.90;;;;;;4953418;28;20035;-63
2023/08/01 02:13:39;;;;;;;12.18;4.93;;;;;;;;;;4942479;28;20446;-62
2023/08/01 02:16:05;;;;;;;15.25;6.15;;;14.90;99.90;;;;;;4945391;28;20054;-64
2023/08/01 02:18:30;;;;;;;14.95;6.38;;;14.90;99.90;;;;;;4945774;28;20047;-66
2023/08/01 02:20:56;;;;;;;20.90;7.18;;;14.50;99.90;;;;;;4948484;28;20450;-62
2023/08/01 02:23:22;;;;;;;19.95;8.00;;;15.20;99.90;;;;;;4948959;28;20046;-63
2023/08/01 02:25:47;;;;;;;12.48;4.90;;;14.50;99.90;;;;;;4949110;28;20386;-64
2023/08/01 02:28:13;;;;;;;12.80;5.72;;;14.60;99.90;;;;;;4947888;28;20075;-64
2023/08/01 02:30:39;;;;;;;11.38;4.82;;;14.90;99.90;;;;;;4941779;28;20174;-64
2023/08/01 02:33:04;;;;;;;12.85;4.90;;;14.80;99.90;;;;;;4944295;28;20126;-64
2023/08/01 02:35:31;;;;;;;17.98;5.50;;;14.80;99.90;;;;;;4940010;28;20498;-63
2023/08/01 02:37:57;;;;;;;14.23;5.50;;;;;;;;;;4953082;28;20035;-64
2023/08/01 02:40:23;;;;;;;12.02;4.95;;;14.50;99.90;;;;;;4969345;28;20390;-63
2023/08/01 02:42:49;;;;;;;12.82;4.40;;;14.30;99.90;;;;;;4953497;28;20043;-64
2023/08/01 02:45:14;;;;;;;13.18;4.05;;;14.90;99.90;;;;;;4953085;28;20454;-64
2023/08/01 02:47:40;;;;;;;13.38;3.60;;;14.90;99.90;;;;;;4944530;28;20297;-64
2023/08/01 02:50:06;;;;;;;13.85;3.58;;;14.80;99.90;;;;;;4943596;28;20110;-64
2023/08/01 02:52:32;;;;;;;10.88;3.80;;;15.50;99.90;;;;;;4952634;28;20035;-64
2023/08/01 02:54:57;;;;;;;14.50;3.50;;;14.50;99.90;;;;;;4952491;28;20035;-63
2023/08/01 02:57:23;;;;;;;10.52;2.97;;;15.00;99.90;;;;;;4936032;28;20040;-64
2023/08/01 02:59:49;;;;;;;10.00;3.45;;;15.10;99.90;;;;;;4945281;28;20114;-64
2023/08/01 03:02:15;;;;;;;13.48;3.22;;;15.20;99.90;;;;;;4951724;28;20072;-64
2023/08/01 03:04:40;;;;;;;9.73;3.17;;;14.50;99.90;;;;;;4952411;28;20114;-63
2023/08/01 03:07:06;;;;;;;11.60;2.63;;;15.00;99.90;;;;;;4952664;28;20035;-64
2023/08/01 03:09:35;;;;;;;9.13;2.90;;;15.30;99.90;;;;;;4951904;28;20039;-63
2023/08/01 03:12:00;;;;;;;10.60;2.72;;;15.40;99.90;;;;;;4946700;28;20040;-64
2023/08/01 03:14:26;;;;;;;10.73;2.58;;;14.60;99.90;;;;;;4947362;28;20046;-64
2023/08/01 03:16:52;;;;;;;9.95;2.75;;;14.90;99.90;;;;;;4949331;28;20062;-63
2023/08/01 03:19:18;;;;;;;10.20;2.35;;;15.10;99.90;;;;;;4944120;28;20055;-63
2023/08/01 03:21:43;;;;;;;7.13;2.20;;;14.80;99.90;;;;;;4938810;28;20142;-63
2023/08/01 03:24:09;;;;;;;13.95;2.72;;;14.50;99.90;;;;;;4946020;28;20118;-64
2023/08/01 03:26:36;;;;;;;10.77;2.53;;;15.10;99.90;;;;;;4948435;28;20519;-64
2023/08/01 03:29:02;;;;;;;8.02;2.50;;;14.90;99.90;;;;;;4950574;28;20426;-61
2023/08/01 03:31:27;;;;;;;10.10;2.78;;;15.40;99.90;;;;;;4950666;28;20288;-63
2023/08/01 03:33:53;;;;;;;9.00;2.67;;;14.80;99.90;;;;;;4950634;28;20055;-63
2023/08/01 03:36:20;;;;;;;15.70;3.25;;;14.90;99.90;;;;;;4951791;28;20035;-63
2023/08/01 03:38:45;;;;;;;9.63;2.70;;;14.50;99.90;;;;;;4937073;28;20134;-64
2023/08/01 03:41:11;;;;;;;11.13;3.30;;;15.00;99.90;;;;;;4943960;28;20121;-63
2023/08/01 03:43:37;;;;;;;11.45;3.17;;;14.60;99.90;;;;;;4941945;28;20047;-64
2023/08/01 03:46:03;;;;;;;12.05;2.72;;;14.50;99.90;;;;;;4948776;28;20398;-63
2023/08/01 03:48:28;;;;;;;12.32;3.50;;;15.10;99.90;;;;;;4933761;28;20510;-64
2023/08/01 03:50:54;;;;;;;10.13;2.80;;;14.90;99.90;;;;;;4943633;28;20160;-63
2023/08/01 03:53:19;;;;;;;9.90;3.10;;;14.70;99.90;;;;;;4949237;28;20489;-63
2023/08/01 03:55:47;;;;;;;10.30;2.97;;;14.40;99.90;;;;;;4939618;28;20070;-63
2023/08/01 03:58:13;;;;;;;9.27;2.95;;;14.60;99.90;;;;;;4947261;28;20035;-64
2023/08/01 04:00:38;;;;;;;12.10;2.67;;;14.70;99.90;;;;;;4940755;28;20046;-63
2023/08/01 04:03:04;;;;;;;10.77;3.30;;;14.70;99.90;;;;;;4940675;28;20047;-63
2023/08/01 04:05:30;;;;;;;8.77;2.88;;;15.00;99.90;;;;;;4943888;28;20046;-63
2023/08/01 04:07:55;;;;;;;10.35;3.72;;;14.60;99.90;;;;;;4954039;28;20097;-64
2023/08/01 04:10:24;;;;;;;10.90;2.95;;;14.30;99.90;;;;;;4950374;28;20413;-64
2023/08/01 04:12:50;;;;;;;9.00;2.75;;;14.60;99.90;;;;;;4932490;28;20047;-64
2023/08/01 04:15:15;;;;;;;10.27;2.92;;;14.90;99.90;;;;;;4938720;28;20036;-63
2023/08/01 04:17:41;;;;;;;13.73;2.83;;;14.80;99.90;;;;;;4939572;28;20032;-63
2023/08/01 04:20:08;;;;;;;11.90;3.22;;;14.70;99.90;;;;;;4946681;28;20035;-63
2023/08/01 04:22:33;;;;;;;9.07;3.08;;;15.50;99.90;;;;;;4950064;28;20117;-63
2023/08/01 04:25:00;;;;;;;11.15;3.75;;;14.90;99.90;;;;;;4933369;28;20123;-62
2023/08/01 04:27:26;;;;;;;10.77;4.18;;;14.50;99.90;;;;;;4936705;28;20476;-64
2023/08/01 04:29:51;;;;;;;16.55;5.25;;;15.20;99.90;;;;;;4932328;28;20047;-62
2023/08/01 04:32:17;;;;;;;15.43;4.35;;;14.80;99.90;;;;;;4945767;28;20039;-63
2023/08/01 04:34:42;;;;;;;13.00;3.95;;;15.20;99.90;;;;;;4950611;28;20058;-63
2023/08/01 04:37:10;;;;;;;13.63;4.57;;;14.60;99.90;;;;;;4951132;28;20420;-63
2023/08/01 04:39:35;;;;;;;10.85;4.07;;;14.70;99.90;;;;;;4947908;28;20110;-62
2023/08/01 04:42:01;;;;;;;13.25;4.55;;;;;;;;;;4940881;28;20557;-63
2023/08/01 04:44:30;;;;;;;10.82;3.72;;;;;;;;;;4942791;28;20138;-63
2023/08/01 04:46:56;;;;;;;9.80;3.42;;;15.50;99.90;;;;;;4947146;28;20091;-65
2023/08/01 04:49:21;;;;;;;9.93;3.45;;;15.10;99.90;;;;;;4940054;28;20039;-64
2023/08/01 04:51:49;;;;;;;10.55;3.67;;;14.90;99.90;;;;;;4946377;28;20043;-64
2023/08/01 04:54:15;;;;;;;8.45;3.60;;;15.40;99.90;;;;;;4941722;28;20039;-63
2023/08/01 04:56:41;;;;;;;12.23;3.92;;;15.20;99.90;;;;;;4947589;28;20042;-63
2023/08/01 04:59:06;;;;;;;11.75;4.20;;;15.50;99.90;;;;;;4941727;28;20573;-64
2023/08/01 05:01:32;;;;;;;10.85;3.50;;;15.10;99.90;;;;;;4936902;28;20039;-64
2023/08/01 05:03:58;;;;;;;14.60;4.10;;;15.30;99.90;;;;;;4941433;28;20134;-64
2023/08/01 05:06:23;;;;;;;16.13;3.67;;;15.10;99.90;;;;;;4937467;28;20036;-63
2023/08/01 05:08:49;;;;;;;12.57;4.18;;;15.30;99.90;;;;;;4957549;28;20130;-63
2023/08/01 05:11:14;;;;;;;9.98;4.03;;;15.20;99.90;;;;;;4965900;28;20049;-63
2023/08/01 05:13:40;;;;;;;12.18;3.72;;;15.30;99.90;;;;;;4970200;28;20069;-63
2023/08/01 05:16:06;;;;;;;11.57;4.30;;;15.00;99.90;;;;;;4958645;28;20043;-63
2023/08/01 05:18:31;;;;;;;10.00;3.10;;;15.20;99.90;;;;;;4962314;28;20034;-63
2023/08/01 05:20:57;;;;;;;11.38;3.00;;;15.20;99.90;;;;;;4950765;28;20039;-64
2023/08/01 05:23:22;;;;;;;8.90;2.47;;;14.80;99.90;;;;;;4967470;28;20050;-63
2023/08/01 05:25:48;;;;;;;10.73;2.47;;;15.30;99.90;;;;;;4968858;28;20101;-62
2023/08/01 05:28:15;;;;;;;6.85;2.08;;;14.90;99.90;;;;;;4952683;28;20051;-63
2023/08/01 05:30:40;;;;;;;8.15;2.05;;;15.20;99.90;;;;;;4959697;28;20051;-62
2023/08/01 05:33:06;;;;;;;6.72;1.60;;;14.90;99.90;;;;;;4959452;28;20122;-64
2023/08/01 05:35:32;;;;;;;10.85;2.10;;;15.00;99.90;;;;;;4960138;28;20050;-63
2023/08/01 05:37:58;;;;;;;9.23;2.88;;;14.50;99.90;;;;;;4966606;28;20046;-63
2023/08/01 05:40:23;;;;;;;10.45;2.13;;;15.00;99.90;;;;;;4953993;28;20054;-64
2023/08/01 05:42:49;;;;;;;11.02;2.25;;;14.60;99.90;;;;;;4958750;28;20043;-62
2023/08/01 05:45:15;;;;;;;7.90;2.45;;;14.50;99.90;;;;;;4966478;28;20042;-63
2023/08/01 05:47:41;;;;;;;7.07;2.05;;;14.50;99.90;;;;;;4947548;28;20034;-63
2023/08/01 05:50:07;;;;;;;6.13;2.08;;;14.90;99.90;;;;;;4943816;28;20113;-63
2023/08/01 05:52:34;;;;;;;7.07;1.92;;;;;;;;;;4953668;28;20039;-63
2023/08/01 05:54:59;;;;;;;6.28;1.90;;;14.10;99.90;;;;;;4950008;28;20050;-64
2023/08/01 05:57:25;;;;;;;8.23;3.03;;;14.40;99.90;;;;;;4947531;28;20425;-63
2023/08/01 05:59:51;;;;;;;10.05;2.80;;;14.90;99.90;;;;;;4952041;28;20093;-63
2023/08/01 06:02:16;;;;;;;12.43;2.33;;;14.90;99.90;;;;;;4947735;28;20497;-63
2023/08/01 06:04:42;;;;;;;6.60;2.00;;;14.80;99.90;;;;;;4953187;28;20031;-64
2023/08/01 06:07:08;;;;;;;8.30;2.22;;;15.60;99.90;;;;;;4955699;28;20047;-64
2023/08/01 06:09:34;;;;;;;10.18;2.40;;;14.70;99.90;;;;;;4953448;28;20063;-64
2023/08/01 06:11:59;;;;;;;8.30;2.50;;;14.90;99.90;;;;;;4952131;28;20122;-63
2023/08/01 06:14:25;;;;;;;7.88;2.38;;;14.90;99.90;;;;;;4940132;28;20044;-63
2023/08/01 06:16:51;;;;;;;8.60;2.53;;;15.00;99.90;;;;;;4943853;28;20040;-64
2023/08/01 06:19:16;;;;;;;10.95;2.63;;;14.70;99.90;;;;;;4953077;28;20035;-64
2023/08/01 06:21:42;;;;;;;9.18;2.72;;;15.10;99.90;;;;;;4947288;28;20042;-64
2023/08/01 06:24:08;;;;;;;10.85;2.30;;;14.70;99.90;;;;;;4945031;28;20042;-63
2023/08/01 06:26:34;;;;;;;9.02;2.13;;;15.10;99.90;;;;;;4945355;28;20043;-62
2023/08/01 06:28:59;;;;;;;9.95;2.65;;;14.50;99.90;;;;;;4939141;28;20045;-64
2023/08/01 06:31:26;;;;;;;12.02;2.65;;;;;;;;;;4947394;28;20491;-64
2023/08/01 06:33:51;;;;;;;15.60;2.65;;;14.90;99.90;;;;;;4950241;28;20047;-64
2023/08/01 06:36:17;;;;;;;12.93;2.90;;;14.60;99.90;;;;;;4952191;28;20098;-64
2023/08/01 06:38:43;;;;;;;13.10;2.50;;;14.80;99.90;;;;;;4951969;28;20101;-63
2023/08/01 06:41:09;;;;;;;12.38;2.58;;;;;;;;;;4942558;28;20126;-64
2023/08/01 06:43:38;;;;;;;10.15;2.50;;;15.30;99.90;;;;;;4938960;28;20103;-63
2023/08/01 06:46:04;;;;;;;13.25;2.53;;;15.00;99.90;;;;;;4948835;28;20122;-64
2023/08/01 06:48:29;;;;;;;13.18;3.20;;;15.20;99.90;;;;;;4944584;28;20154;-62
2023/08/01 06:50:55;;;;;;;10.27;2.83;;;15.30;99.90;;;;;;4961060;28;20045;-63
2023/08/01 06:53:21;;;;;;;10.57;3.47;;;;;;;;;;4954087;28;20047;-63
2023/08/01 06:55:47;;;;;;;13.57;3.85;;;14.80;99.90;;;;;;4952844;28;20047;-64
2023/08/01 06:58:13;;;;;;;9.98;3.67;;;15.20;99.90;;;;;;4952934;28;20122;-63
2023/08/01 07:00:38;;;;;;;12.35;3.10;;;15.20;99.90;;;;;;4952967;28;20035;-63
2023/08/01 07:03:04;;;;;;;12.75;2.80;;;15.10;99.90;;;;;;4952186;28;20049;-63
2023/08/01 07:05:30;;;;;;;17.15;3.28;;;;;;;;;;4941817;28;20039;-62
2023/08/01 07:07:57;;;;;;;8.13;2.53;;;15.60;99.90;;;;;;4949638;28;20126;-64
2023/08/01 07:10:23;;;;;;;15.27;2.80;;;14.90;99.90;;;;;;4954367;28;20047;-64
2023/08/01 07:12:49;;;;;;;13.77;3.95;;;15.40;99.90;;;;;;4950828;28;20413;-63
2023/08/01 07:15:14;;;;;;;12.38;3.95;;;15.90;99.90;;;;;;4950999;28;20173;-63
2023/08/01 07:17:40;;;;;;;12.43;3.22;;;15.30;99.90;;;;;;4951812;28;20039;-65
2023/08/01 07:20:06;;;;;;;9.00;3.22;;;15.30;99.90;;;;;;4951876;28;20043;-64
2023/08/01 07:22:31;;;;;;;11.73;3.35;;;15.30;99.90;;;;;;4950971;28;20054;-64
2023/08/01 07:24:57;;;;;;;11.07;3.35;;;16.20;99.90;;;;;;4942380;28;20048;-64
2023/08/01 07:27:23;;;;;;;10.77;2.88;;;15.40;99.90;;;;;;4944687;28;20110;-64
2023/08/01 07:29:48;;;;;;;10.13;3.47;;;15.50;99.90;;;;;;4941541;28;20410;-63
2023/08/01 07:32:14;;;;;;;13.27;4.20;;;15.60;99.90;;;;;;4931432;29;20490;-62
2023/08/01 07:34:40;;;;;;;11.00;4.45;;;15.40;99.90;;;;;;4948667;28;20482;-64
2023/08/01 07:37:06;;;;;;;8.60;3.00;;;15.90;99.90;;;;;;4951713;28;20098;-63
2023/08/01 07:39:34;;;;;;;11.23;3.72;;;15.50;99.90;;;;;;4941441;28;20050;-64
2023/08/01 07:41:59;;;;;;;9.40;2.85;;;15.20;99.90;;;;;;4943548;28;20464;-65
2023/08/01 07:44:25;;;;;;;8.80;3.05;;;15.30;99.90;;;;;;4950594;28;20043;-64
2023/08/01 07:46:50;;;;;;;10.32;2.83;;;15.60;99.90;;;;;;4942845;28;20043;-62
2023/08/01 07:49:16;;;;;;;12.15;3.60;;;15.70;99.90;;;;;;4939077;28;20035;-62
2023/08/01 07:51:42;;;;;;;12.50;4.00;;;15.00;99.90;;;;;;4945042;28;20035;-64
2023/08/01 07:54:07;;;;;;;11.35;3.38;;;15.40;99.90;;;;;;4962106;28;20043;-64
2023/08/01 07:56:33;;;;;;;11.00;3.25;;;15.20;99.90;;;;;;4945772;28;20043;-63
2023/08/01 07:58:58;;;;;;;10.45;3.30;;;15.10;99.90;;;;;;4964405;28;20050;-63
2023/08/01 08:01:24;;;;;;;13.52;3.40;;;15.20;99.90;;;;;;4942646;28;20042;-64
2023/08/01 08:03:50;;;;;;;15.00;3.97;;;15.50;99.90;;;;;;4942311;28;20051;-62
2023/08/01 08:06:16;;;;;;;14.25;3.83;;;15.10;99.90;;;;;;4950200;28;20035;-64
2023/08/01 08:08:41;;;;;;;11.68;4.35;;;14.90;99.90;;;;;;4964604;28;20170;-64
2023/08/01 08:11:07;;;;;;;10.50;4.00;;;15.20;99.90;;;;;;4942682;28;20043;-65
2023/08/01 08:13:32;;;;;;;21.98;4.30;;;15.50;99.90;;;;;;4951368;28;20405;-63
2023/08/01 08:15:59;;;;;;;12.13;3.97;;;;;;;;;;4963510;28;20492;-64
2023/08/01 08:18:25;;;;;;;11.75;3.80;;;15.20;99.90;;;;;;4963285;28;20049;-62
2023/08/01 08:20:50;;;;;;;12.50;4.00;;;15.40;99.90;;;;;;4938898;28;20042;-62
2023/08/01 08:23:16;;;;;;;15.05;4.13;;;15.50;99.90;;;;;;4944171;28;20445;-62
2023/08/01 08:25:44;;;;;;;15.60;4.65;;;15.00;99.90;;;;;;4952345;28;20041;-64
2023/08/01 08:28:12;;;;;;;11.43;3.50;;;15.60;99.90;;;;;;4943556;28;20047;-64
2023/08/01 08:30:38;;;;;;;13.00;3.20;;;15.70;99.90;;;;;;4955947;28;20038;-63
2023/08/01 08:33:06;;;;;;;9.05;3.15;;;15.40;99.90;;;;;;4954741;28;20098;-63
2023/08/01 08:35:34;;;;;;;10.00;3.47;;;15.10;99.90;;;;;;4944393;28;20075;-64
2023/08/01 08:38:03;;;;;;;8.82;3.10;;;15.80;99.90;;;;;;4952531;28;20078;-63
2023/08/01 08:40:28;;;;;;;9.48;3.10;;;15.60;99.90;;;;;;4948908;28;20043;-63
2023/08/01 08:42:54;;;;;;;11.07;3.47;;;15.40;99.90;;;;;;4952804;28;20566;-63
2023/08/01 08:45:21;;;;;;;11.50;4.45;;;15.50;99.90;;;;;;4955895;28;20122;-62
2023/08/01 08:47:55;;;;;;;11.57;3.85;;;15.40;99.90;;;;;;4959104;28;20095;-63
2023/08/01 08:50:21;;;;;;;11.32;3.75;;;15.50;99.90;;;;;;4946032;28;20036;-63
2023/08/01 08:52:47;;;;;;;10.15;3.30;;;15.30;99.90;;;;;;4947896;28;20042;-63
2023/08/01 08:55:13;;;;;;;12.57;4.00;;;15.90;99.90;;;;;;4940566;28;20118;-63
2023/08/01 08:57:44;;;;;;;15.13;3.80;;;;;;;;;;4939622;28;20035;-63
2023/08/01 09:00:11;;;;;;;16.30;3.42;;;16.10;99.90;;;;;;4938701;28;20118;-64
2023/08/01 09:02:36;;;;;;;13.88;3.90;;;16.50;99.90;;;;;;4946797;28;20055;-63
2023/08/01 09:05:02;;;;;;;8.43;2.58;;;16.50;99.90;;;;;;4960772;28;20039;-64
2023/08/01 09:07:32;;;;;;;6.57;2.50;;;;;;;;;;4954744;28;20034;-63
2023/08/01 09:09:58;;;;;;;11.15;3.63;;;16.00;99.90;;;;;;4952577;28;20050;-64
2023/08/01 09:12:24;;;;;;;8.57;2.60;;;16.60;99.90;;;;;;4949452;28;20147;-63
2023/08/01 09:14:51;;;;;;;7.30;2.42;;;16.10;99.90;;;;;;4955878;28;20089;-63
2023/08/01 09:17:18;;;;;;;7.25;2.65;;;;;;;;;;4957298;28;20134;-64
2023/08/01 09:19:44;;;;;;;7.10;2.50;;;16.40;99.90;;;;;;4963142;28;20058;-63
2023/08/01 09:22:11;;;;;;;9.25;3.20;;;16.50;99.90;;;;;;4969224;28;20039;-62
2023/08/01 09:24:37;;;;;;;11.18;3.88;;;16.30;99.90;;;;;;4949479;28;20038;-63
2023/08/01 09:27:04;;;;;;;9.63;3.20;;;16.60;99.90;;;;;;4964796;28;20101;-64
2023/08/01 09:29:32;;;;;;;10.02;3.40;;;;;;;;;;4955259;28;20417;-62
2023/08/01 09:31:58;;;;;;;9.07;3.42;;;16.50;82.20;;;;;;4967055;28;20122;-62
2023/08/01 09:34:26;;;;;;;10.23;3.40;;;16.60;92.10;;;;;;4953244;28;20063;-64
2023/08/01 09:36:58;;;;;;;9.00;3.47;;;16.90;99.90;;;;;;4956241;28;20042;-63
2023/08/01 09:39:23;;;;;;;11.82;2.97;;;16.60;99.90;;;;;;4951266;28;20071;-64
2023/08/01 09:41:56;;;;;;;9.35;3.30;;;16.80;1.00;;;;;;4957606;28;20453;-63
2023/08/01 09:44:23;;;;;;;10.55;3.25;;;;;;;;;;4958077;28;20039;-64
2023/08/01 09:46:59;;;;;;;10.95;3.28;;;16.90;1.00;;;;;;4964303;28;20089;-63
2023/08/01 09:49:25;;;;;;;9.15;2.20;;;16.70;1.00;;;;;;4945282;28;20110;-62
2023/08/01 09:51:51;;;;;;;9.35;2.42;;;16.80;1.00;;;;;;4953697;28;20118;-64
2023/08/01 09:54:17;;;;;;;7.80;2.80;;;16.50;1.00;;;;;;4961230;28;20047;-63
2023/08/01 09:56:50;;;;;;;6.68;1.80;;;17.00;99.90;;;;;;4962527;28;20047;-63
2023/08/01 09:59:24;;;;;;;9.55;2.67;;;16.50;99.90;;;;;;4951660;28;20105;-63
2023/08/01 10:01:51;;;;;;;9.23;3.45;;;16.50;99.90;;;;;;4961677;28;20110;-64
2023/08/01 10:04:33;;;;;;;13.07;2.75;;;16.50;99.90;;;;;;4968750;28;20074;-63
2023/08/01 10:07:23;;;;;;;10.05;2.70;;;16.40;99.90;;;;;;4947071;28;20039;-65
2023/08/01 10:09:49;;;;;;;7.95;2.00;;;16.70;99.90;;;;;;4958673;28;20039;-63
2023/08/01 10:12:18;;;;;;;7.13;1.88;;;16.70;99.90;;;;;;4954534;28;20105;-64
2023/08/01 10:14:44;;;;;;;7.40;2.15;;;;;;;;;;4957830;28;20047;-64
2023/08/01 10:17:15;;;;;;;8.82;2.05;;;16.80;99.90;;;;;;4953936;28;20457;-64
2023/08/01 10:19:42;;;;;;;7.28;2.05;;;16.60;99.90;;;;;;4953542;28;20039;-63
2023/08/01 10:22:09;;;;;;;7.65;1.98;;;16.60;99.90;;;;;;4953187;28;20043;-62
2023/08/01 10:24:36;;;;;;;5.65;1.50;;;16.50;99.90;;;;;;4963151;28;20062;-63
2023/08/01 10:27:22;;;;;;;13.82;2.47;;;16.70;99.90;;;;;;4956477;28;20118;-62
2023/08/01 10:30:02;;;;;;;6.88;1.85;;;16.90;99.90;;;;;;4947123;28;20126;-63
2023/08/01 10:32:36;;;;;;;7.72;1.88;;;17.00;99.90;;;;;;4962676;28;20031;-63
2023/08/01 10:35:03;;;;;;;7.88;1.92;;;16.90;99.90;;;;;;4968168;28;20043;-63
2023/08/01 10:37:48;;;;;;;5.80;2.15;;;16.90;99.90;;;;;;4952934;28;20043;-64
2023/08/01 10:40:13;;;;;;;;;;;16.80;99.90;;;;;;4962469;28;20043;-63
2023/08/01 10:42:45;;;;;;;8.27;1.60;;;17.20;99.90;;;;;;4968484;28;19928;-63
2023/08/01 10:45:25;;;;;;;8.13;2.13;;;17.20;99.90;;;;;;4962137;28;20047;-63
2023/08/01 10:47:51;;;;;;;6.55;2.17;;;17.30;99.90;;;;;;4960053;28;20075;-63
2023/08/01 10:50:17;;;;;;;8.57;1.90;;;16.90;99.90;;;;;;4943548;28;20481;-62
2023/08/01 10:52:43;;;;;;;6.75;1.75;;;17.10;99.90;;;;;;4957629;28;20122;-63
2023/08/01 10:55:10;;;;;;;5.45;1.50;;;17.60;1.00;;;;;;4944265;28;20046;-63
2023/08/01 10:57:48;;;;;;;5.40;1.70;;;17.20;1.00;;;;;;4932103;28;20047;-62
2023/08/01 11:00:17;;;;;;;5.95;1.92;;;17.50;51.30;;;;;;4942067;28;20089;-63
2023/08/01 11:02:50;;;;;;;7.18;1.40;;;17.50;1.00;;;;;;4952739;28;20510;-63
2023/08/01 11:05:15;;;;;;;6.40;1.70;;;17.10;1.00;;;;;;4948184;28;20093;-61
2023/08/01 11:07:41;;;;;;;8.88;2.05;;;17.60;1.00;;;;;;4947933;28;20035;-63
2023/08/01 11:10:11;;;;;;;8.23;1.67;;;17.60;1.00;;;;;;4949545;28;20054;-64
2023/08/01 11:12:38;;;;;;;5.03;1.60;;;18.10;1.00;;;;;;4948218;28;20410;-63
2023/08/01 11:15:07;;;;;;;12.15;2.80;;;17.50;1.00;;;;;;4948924;28;20054;-61
2023/08/01 11:17:34;;;;;;;7.65;2.45;;;17.60;59.30;;;;;;4947754;28;20051;-63
2023/08/01 11:20:12;;;;;;;5.75;2.17;;;17.90;77.20;;;;;;4935977;28;20139;-63
2023/08/01 11:22:53;;;;;;;13.07;3.30;;;17.60;1.00;;;;;;4957050;28;20068;-64
2023/08/01 11:25:19;;;;;;;7.32;2.38;;;18.70;1.00;;;;;;4944205;28;20040;-64
2023/08/01 11:27:45;;;;;;;11.75;3.10;;;18.30;1.00;;;;;;4943702;28;20045;-61
2023/08/01 11:30:11;;;;;;;7.10;2.28;;;18.10;1.00;;;;;;4952182;28;20039;-63
2023/08/01 11:32:38;;;;;;;9.40;2.90;;;17.90;1.00;;;;;;4952274;28;20041;-63
2023/08/01 11:35:04;;;;;;;13.15;3.47;;;18.00;1.00;;;;;;4945715;28;20047;-64
2023/08/01 11:37:32;;;;;;;8.55;2.65;;;17.90;1.00;;;;;;4949230;28;20047;-62
2023/08/01 11:39:59;;;;;;;10.88;2.97;;;18.90;99.90;;;;;;4959966;28;20050;-62
2023/08/01 11:42:24;;;;;;;7.72;2.03;;;18.30;99.90;;;;;;4961890;28;20125;-63
2023/08/01 11:44:50;;;;;;;10.88;2.13;;;18.40;99.90;;;;;;4944654;28;20126;-63
2023/08/01 11:47:17;;;;;;;6.07;2.75;;;18.40;99.90;;;;;;4951178;28;20067;-62
2023/08/01 11:49:50;;;;;;;8.15;2.20;;;18.40;99.90;;;;;;4944151;28;20054;-63
2023/08/01 11:52:28;;;;;;;9.15;2.55;;;18.20;99.90;;;;;;4944909;28;20039;-64
2023/08/01 11:54:54;;;;;;;11.63;2.83;;;18.80;1.00;;;;;;4950304;28;20717;-64
2023/08/01 11:57:23;;;;;;;10.98;2.58;;;18.80;99.90;;;;;;4942113;28;20047;-63
2023/08/01 11:59:51;;;;;;;9.38;2.40;;;18.70;99.90;;;;;;4947344;28;20047;-63
2023/08/01 12:02:32;;;;;;;8.98;2.17;;;18.50;99.90;;;;;;4943101;28;20535;-63
2023/08/01 12:04:58;;;;;;;5.75;2.40;;;18.80;99.90;;;;;;4948078;28;20099;-63
2023/08/01 12:07:29;;;;;;;8.07;2.55;;;18.40;99.90;;;;;;4950178;28;20027;-63
2023/08/01 12:09:59;;;;;;;9.70;2.30;;;18.70;99.90;;;;;;4946172;28;20058;-63
2023/08/01 12:12:27;;;;;;;9.80;2.40;;;;;;;;;;4934272;28;20544;-64
2023/08/01 12:14:54;;;;;;;5.22;1.95;;;18.80;99.90;;;;;;4941210;28;20126;-63
2023/08/01 12:17:20;;;;;;;7.68;2.45;;;19.00;99.90;;;;;;4943517;28;20059;-63
2023/08/01 12:19:46;;;;;;;8.20;2.20;;;18.80;99.90;;;;;;4948964;28;20413;-64
2023/08/01 12:22:12;;;;;;;7.40;2.58;;;19.00;99.90;;;;;;4943066;28;20039;-63
2023/08/01 12:24:38;;;;;;;6.75;2.05;;;18.70;99.90;;;;;;4943300;28;20160;-63
2023/08/01 12:27:08;;;;;;;8.27;1.83;;;19.00;99.90;;;;;;4937754;28;20040;-63
2023/08/01 12:29:34;;;;;;;6.80;1.80;;;18.90;99.90;;;;;;4941265;28;20262;-64
2023/08/01 12:32:00;;;;;;;8.30;1.88;;;18.60;99.90;;;;;;4942969;28;20127;-63
2023/08/01 12:34:25;;;;;;;8.45;2.45;;;19.20;99.90;;;;;;4941675;28;20449;-64
2023/08/01 12:36:51;;;;;;;7.50;2.05;;;19.20;99.90;;;;;;4936674;28;20074;-64
2023/08/01 12:39:17;;;;;;;9.88;2.25;;;19.00;99.90;;;;;;4939052;28;20035;-63
2023/08/01 12:41:42;;;;;;;8.07;2.20;;;19.60;99.90;;;;;;4939424;28;20294;-64
2023/08/01 12:44:08;;;;;;;8.07;2.38;;;19.10;99.90;;;;;;4938245;28;20079;-63
2023/08/01 12:46:33;;;;;;;8.90;2.28;;;19.20;99.90;;;;;;4942508;28;20039;-63